createdAt,value
2018-12-18T00:00:50.653Z,99.50
2018-12-18T00:03:19.762Z,99.60
2018-12-18T00:05:48.863Z,99.70
2018-12-18T00:08:17.988Z,99.50
2018-12-18T00:10:52.144Z,99.50
2018-12-18T00:13:21.678Z,99.50
2018-12-18T00:15:50.761Z,99.50
2018-12-18T00:18:19.890Z,99.50
2018-12-18T00:20:49.302Z,99.40
2018-12-18T00:23:18.476Z,99.40
2018-12-18T00:25:47.575Z,99.40
2018-12-18T00:28:16.703Z,99.40
2018-12-18T00:30:45.798Z,98.90
2018-12-18T00:33:14.878Z,98.70
2018-12-18T00:35:44.477Z,98.90
2018-12-18T00:38:13.526Z,98.50
2018-12-18T00:40:42.620Z,98.80
2018-12-18T00:43:11.756Z,99.00
2018-12-18T00:45:41.104Z,98.90
2018-12-18T00:48:10.178Z,98.60
2018-12-18T00:50:39.670Z,98.60
2018-12-18T00:53:08.908Z,98.30
2018-12-18T00:55:38.020Z,98.30
2018-12-18T00:58:07.594Z,98.50
2018-12-18T01:00:36.661Z,98.60
2018-12-18T01:03:05.972Z,98.70
2018-12-18T01:05:35.489Z,98.70
2018-12-18T01:08:04.816Z,98.90
2018-12-18T01:10:33.931Z,98.90
2018-12-18T01:13:03.220Z,99.00
2018-12-18T01:15:32.294Z,99.00
2018-12-18T01:18:01.442Z,99.10
2018-12-18T01:20:30.589Z,99.40
2018-12-18T01:22:59.648Z,99.50
2018-12-18T01:25:29.775Z,99.40
2018-12-18T01:27:58.909Z,99.40
2018-12-18T01:30:28.011Z,99.30
2018-12-18T01:32:57.088Z,99.50
2018-12-18T01:35:26.293Z,99.40
2018-12-18T01:37:55.350Z,99.50
2018-12-18T01:40:24.451Z,99.60
2018-12-18T01:42:53.551Z,99.40
2018-12-18T01:45:22.613Z,99.30
2018-12-18T01:47:51.734Z,99.40
2018-12-18T01:50:20.865Z,99.40
2018-12-18T01:52:49.970Z,99.10
2018-12-18T01:55:19.083Z,99.00
2018-12-18T01:57:48.201Z,99.10
2018-12-18T02:00:17.417Z,99.00
2018-12-18T02:02:46.503Z,99.10
2018-12-18T02:05:15.609Z,99.30
2018-12-18T02:07:44.652Z,99.30
2018-12-18T02:10:13.765Z,99.20
2018-12-18T02:12:42.957Z,99.00
2018-12-18T02:15:12.048Z,99.00
2018-12-18T02:17:41.228Z,99.20
2018-12-18T02:20:10.356Z,99.00
2018-12-18T02:22:39.431Z,99.10
2018-12-18T02:25:08.569Z,98.90
2018-12-18T02:27:37.739Z,99.00
2018-12-18T02:30:07.471Z,99.00
2018-12-18T02:32:36.523Z,99.10
2018-12-18T02:35:06.656Z,99.10
2018-12-18T02:37:35.754Z,99.20
2018-12-18T02:40:05.419Z,99.40
2018-12-18T02:42:34.621Z,99.20
2018-12-18T02:45:03.894Z,99.40
2018-12-18T02:47:33.006Z,99.40
2018-12-18T02:50:02.473Z,99.40
2018-12-18T02:52:31.555Z,99.30
2018-12-18T02:55:00.607Z,99.80
2018-12-18T02:57:29.729Z,99.70
2018-12-18T03:00:05.017Z,99.80
2018-12-18T03:02:34.120Z,99.80
2018-12-18T03:05:03.398Z,99.90
2018-12-18T03:07:32.518Z,99.80
2018-12-18T03:10:01.713Z,99.80
2018-12-18T03:12:30.856Z,99.90
2018-12-18T03:14:59.934Z,99.90
2018-12-18T03:17:29.067Z,99.90
2018-12-18T03:19:58.123Z,99.90
2018-12-18T03:22:27.228Z,99.90
2018-12-18T03:24:56.375Z,99.90
2018-12-18T03:27:25.518Z,99.90
2018-12-18T03:29:54.646Z,99.90
2018-12-18T03:32:27.727Z,99.90
2018-12-18T03:34:56.783Z,99.90
2018-12-18T03:37:25.862Z,99.90
2018-12-18T03:39:55.306Z,99.90
2018-12-18T03:42:24.438Z,99.90
2018-12-18T03:44:53.529Z,99.90
2018-12-18T03:47:22.650Z,99.90
2018-12-18T03:49:51.791Z,99.90
2018-12-18T03:52:20.879Z,99.90
2018-12-18T03:54:50.030Z,99.90
2018-12-18T03:57:19.061Z,99.90
2018-12-18T03:59:48.095Z,99.90
2018-12-18T04:02:17.164Z,99.90
2018-12-18T04:04:46.234Z,99.90
2018-12-18T04:07:15.302Z,99.90
2018-12-18T04:09:44.408Z,99.90
2018-12-18T04:12:18.610Z,99.90
2018-12-18T04:14:47.817Z,99.90
2018-12-18T04:17:16.873Z,99.90
2018-12-18T04:19:45.900Z,99.90
2018-12-18T04:22:15.499Z,99.90
2018-12-18T04:24:44.608Z,99.90
2018-12-18T04:27:13.707Z,99.90
2018-12-18T04:29:43.111Z,99.90
2018-12-18T04:32:12.205Z,99.90
2018-12-18T04:34:43.168Z,99.90
2018-12-18T04:37:12.577Z,99.90
2018-12-18T04:39:41.713Z,99.90
2018-12-18T04:42:10.801Z,99.90
2018-12-18T04:44:39.924Z,99.90
2018-12-18T04:47:09.010Z,99.90
2018-12-18T04:49:38.189Z,99.90
2018-12-18T04:52:07.267Z,99.90
2018-12-18T04:54:36.381Z,99.90
2018-12-18T04:57:05.519Z,99.90
2018-12-18T04:59:35.010Z,99.90
2018-12-18T05:02:04.333Z,99.90
2018-12-18T05:04:33.436Z,99.90
2018-12-18T05:07:02.597Z,99.90
2018-12-18T05:09:31.663Z,99.90
2018-12-18T05:12:00.771Z,99.90
2018-12-18T05:14:29.923Z,99.90
2018-12-18T05:16:59.039Z,99.90
2018-12-18T05:19:28.089Z,99.90
2018-12-18T05:21:57.257Z,99.90
2018-12-18T05:24:26.293Z,99.90
2018-12-18T05:26:55.378Z,99.90
2018-12-18T05:29:24.518Z,99.90
2018-12-18T05:31:53.632Z,99.90
2018-12-18T05:34:22.735Z,99.90
2018-12-18T05:36:51.883Z,99.90
2018-12-18T05:39:20.931Z,99.90
2018-12-18T05:41:50.054Z,99.90
2018-12-18T05:44:19.177Z,99.90
2018-12-18T05:46:48.260Z,99.90
2018-12-18T05:49:17.357Z,99.90
2018-12-18T05:51:46.622Z,99.90
2018-12-18T05:54:15.672Z,99.90
2018-12-18T05:56:44.718Z,99.90
2018-12-18T05:59:13.810Z,99.90
2018-12-18T06:01:42.936Z,99.90
2018-12-18T06:04:11.984Z,99.90
2018-12-18T06:06:41.248Z,99.90
2018-12-18T06:09:10.322Z,99.90
2018-12-18T06:11:39.387Z,99.90
2018-12-18T06:14:08.584Z,99.90
2018-12-18T06:16:37.673Z,99.90
2018-12-18T06:19:06.777Z,99.90
2018-12-18T06:21:35.896Z,99.90
2018-12-18T06:24:05.026Z,99.90
2018-12-18T06:26:34.183Z,99.90
2018-12-18T06:29:03.370Z,99.90
2018-12-18T06:31:32.420Z,99.90
2018-12-18T06:34:01.603Z,99.90
2018-12-18T06:36:31.039Z,99.90
2018-12-18T06:39:00.137Z,99.90
2018-12-18T06:41:29.186Z,99.90
2018-12-18T06:43:58.275Z,99.90
2018-12-18T06:46:27.364Z,99.90
2018-12-18T06:48:56.441Z,99.90
2018-12-18T06:51:25.564Z,99.90
2018-12-18T06:53:54.643Z,99.90
2018-12-18T06:56:23.663Z,99.90
2018-12-18T06:58:52.776Z,99.90
2018-12-18T07:01:21.829Z,99.90
2018-12-18T07:03:50.924Z,99.90
2018-12-18T07:06:20.066Z,99.90
2018-12-18T07:08:49.136Z,99.90
2018-12-18T07:11:18.259Z,99.90
2018-12-18T07:13:47.423Z,99.90
2018-12-18T07:16:16.563Z,99.90
2018-12-18T07:18:45.718Z,99.90
2018-12-18T07:21:14.863Z,99.90
2018-12-18T07:23:43.935Z,99.90
2018-12-18T07:26:12.996Z,99.90
2018-12-18T07:28:42.143Z,99.90
2018-12-18T07:31:11.154Z,99.90
2018-12-18T07:33:40.215Z,99.90
2018-12-18T07:36:09.320Z,99.90
2018-12-18T07:38:38.454Z,99.90
2018-12-18T07:41:07.517Z,99.90
2018-12-18T07:43:36.596Z,99.80
2018-12-18T07:46:05.669Z,99.40
2018-12-18T07:48:35.026Z,99.50
2018-12-18T07:51:04.208Z,99.20
2018-12-18T07:53:33.290Z,99.90
2018-12-18T07:56:02.415Z,99.50
2018-12-18T07:58:31.487Z,99.70
2018-12-18T08:01:00.613Z,99.90
2018-12-18T08:03:29.750Z,99.90
2018-12-18T08:05:59.156Z,99.90
2018-12-18T08:08:28.244Z,99.90
2018-12-18T08:10:57.317Z,99.90
2018-12-18T08:13:26.774Z,99.90
2018-12-18T08:15:55.891Z,99.90
2018-12-18T08:18:24.985Z,99.50
2018-12-18T08:20:54.178Z,99.30
2018-12-18T08:23:23.269Z,99.30
2018-12-18T08:25:52.384Z,99.20
2018-12-18T08:28:21.497Z,98.50
2018-12-18T08:30:50.621Z,98.60
2018-12-18T08:33:22.564Z,98.40
2018-12-18T08:35:51.672Z,98.40
2018-12-18T08:38:20.768Z,98.60
2018-12-18T08:40:49.866Z,98.70
2018-12-18T08:43:18.960Z,98.90
2018-12-18T08:45:47.997Z,98.30
2018-12-18T08:48:17.054Z,98.00
2018-12-18T08:50:46.186Z,98.40
2018-12-18T08:53:15.295Z,98.10
2018-12-18T08:55:44.326Z,97.80
2018-12-18T08:58:13.454Z,98.20
2018-12-18T09:00:42.500Z,98.90
2018-12-18T09:03:11.565Z,98.50
2018-12-18T09:05:43.325Z,97.90
2018-12-18T09:08:11.848Z,97.80
2018-12-18T09:10:41.027Z,98.30
2018-12-18T09:13:10.302Z,98.00
2018-12-18T09:15:44.739Z,96.70
2018-12-18T09:18:13.837Z,97.70
2018-12-18T09:20:43.063Z,97.60
2018-12-18T09:23:12.187Z,98.50
2018-12-18T09:25:41.228Z,97.80
2018-12-18T09:28:10.354Z,97.60
2018-12-18T09:30:42.404Z,97.70
2018-12-18T09:33:10.778Z,97.30
2018-12-18T09:35:40.996Z,97.20
2018-12-18T09:38:15.403Z,97.30
2018-12-18T09:40:49.679Z,97.50
2018-12-18T09:43:24.004Z,97.40
2018-12-18T09:45:53.136Z,97.40
2018-12-18T09:48:22.208Z,97.60
2018-12-18T09:50:51.269Z,97.10
2018-12-18T09:53:20.547Z,97.10
2018-12-18T09:55:49.628Z,96.80
2018-12-18T09:58:18.692Z,96.40
2018-12-18T10:00:47.855Z,97.40
2018-12-18T10:03:16.973Z,97.90
2018-12-18T10:05:46.083Z,98.90
2018-12-18T10:08:15.225Z,97.90
2018-12-18T10:10:44.399Z,97.80
2018-12-18T10:13:13.524Z,97.50
2018-12-18T10:15:42.667Z,97.00
2018-12-18T10:18:11.714Z,97.40
2018-12-18T10:20:40.749Z,96.30
2018-12-18T10:23:09.907Z,96.40
2018-12-18T10:25:39.044Z,97.40
2018-12-18T10:28:08.101Z,97.60
2018-12-18T10:30:37.182Z,97.40
2018-12-18T10:33:07.378Z,96.90
2018-12-18T10:35:36.813Z,97.20
2018-12-18T10:38:06.239Z,97.20
2018-12-18T10:40:35.341Z,96.60
2018-12-18T10:43:05.251Z,96.30
2018-12-18T10:45:35.423Z,95.80
2018-12-18T10:48:04.536Z,96.80
2018-12-18T10:50:33.785Z,96.80
2018-12-18T10:53:03.459Z,96.30
2018-12-18T10:55:32.597Z,96.40
2018-12-18T10:58:01.665Z,96.70
2018-12-18T11:00:36.033Z,96.60
2018-12-18T11:03:05.229Z,96.80
2018-12-18T11:05:34.308Z,96.40
2018-12-18T11:08:04.824Z,96.30
2018-12-18T11:10:33.896Z,95.60
2018-12-18T11:13:20.465Z,95.70
2018-12-18T11:15:49.499Z,97.70
2018-12-18T11:18:18.749Z,99.90
2018-12-18T11:20:47.850Z,98.80
2018-12-18T11:23:16.945Z,96.70
2018-12-18T11:25:46.100Z,96.70
2018-12-18T11:28:15.169Z,96.60
2018-12-18T11:30:44.253Z,96.60
2018-12-18T11:33:13.301Z,96.30
2018-12-18T11:35:42.437Z,95.50
2018-12-18T11:38:11.537Z,95.40
2018-12-18T11:40:40.678Z,95.00
2018-12-18T11:43:09.792Z,95.10
2018-12-18T11:45:38.879Z,94.70
2018-12-18T11:48:07.957Z,95.00
2018-12-18T11:50:37.079Z,96.80
2018-12-18T11:53:06.142Z,97.30
2018-12-18T11:55:35.291Z,97.00
2018-12-18T11:58:05.042Z,97.10
2018-12-18T12:00:34.167Z,96.50
2018-12-18T12:03:03.879Z,96.30
2018-12-18T12:05:32.982Z,96.10
2018-12-18T12:08:02.163Z,95.90
2018-12-18T12:10:31.249Z,95.90
2018-12-18T12:13:00.424Z,95.40
2018-12-18T12:15:29.650Z,95.10
2018-12-18T12:17:58.988Z,93.60
2018-12-18T12:20:28.108Z,94.90
2018-12-18T12:22:57.168Z,96.00
2018-12-18T12:25:26.260Z,95.40
2018-12-18T12:28:00.461Z,96.20
2018-12-18T12:30:29.580Z,98.10
2018-12-18T12:32:58.671Z,98.80
2018-12-18T12:35:28.133Z,98.80
2018-12-18T12:37:57.164Z,97.20
2018-12-18T12:40:26.246Z,96.70
2018-12-18T12:42:55.374Z,96.20
2018-12-18T12:45:24.495Z,96.50
2018-12-18T12:47:56.326Z,96.00
2018-12-18T12:50:25.447Z,95.40
2018-12-18T12:52:54.531Z,95.10
2018-12-18T12:55:23.705Z,94.40
2018-12-18T12:57:52.752Z,94.00
2018-12-18T13:00:21.896Z,93.20
2018-12-18T13:02:51.354Z,93.50
2018-12-18T13:05:20.468Z,93.00
2018-12-18T13:07:49.521Z,93.70
2018-12-18T13:10:18.629Z,93.20
2018-12-18T13:12:47.695Z,94.00
2018-12-18T13:15:16.896Z,95.10
2018-12-18T13:17:46.026Z,95.40
2018-12-18T13:20:15.129Z,95.90
2018-12-18T13:22:44.211Z,95.90
2018-12-18T13:25:13.323Z,96.40
2018-12-18T13:27:42.394Z,96.80
2018-12-18T13:30:11.516Z,96.50
2018-12-18T13:32:41.068Z,96.70
2018-12-18T13:35:10.148Z,96.50
2018-12-18T13:37:39.197Z,97.20
2018-12-18T13:40:08.337Z,97.10
2018-12-18T13:42:37.436Z,97.40
2018-12-18T13:45:07.432Z,96.90
2018-12-18T13:47:36.558Z,96.90
2018-12-18T13:50:06.369Z,97.40
2018-12-18T13:52:35.446Z,98.10
2018-12-18T13:55:05.501Z,97.60
2018-12-18T13:57:34.562Z,97.40
2018-12-18T14:00:03.864Z,97.30
2018-12-18T14:02:33.012Z,97.30
2018-12-18T14:05:02.832Z,97.80
2018-12-18T14:07:31.991Z,98.60
2018-12-18T14:10:01.081Z,98.50
2018-12-18T14:12:30.171Z,99.20
2018-12-18T14:14:59.297Z,99.50
2018-12-18T14:17:28.442Z,99.90
2018-12-18T14:19:57.496Z,98.90
2018-12-18T14:22:26.599Z,99.00
2018-12-18T14:24:55.658Z,99.30
2018-12-18T14:27:24.718Z,99.60
2018-12-18T14:29:53.807Z,99.60
2018-12-18T14:32:22.956Z,99.90
2018-12-18T14:34:52.048Z,99.90
2018-12-18T14:37:21.159Z,99.90
2018-12-18T14:39:50.244Z,99.90
2018-12-18T14:42:19.360Z,99.90
2018-12-18T14:44:49.086Z,99.90
2018-12-18T14:47:18.243Z,99.90
2018-12-18T14:49:47.354Z,99.90
2018-12-18T14:52:16.482Z,99.90
2018-12-18T14:54:45.575Z,99.90
2018-12-18T14:57:14.633Z,99.90
2018-12-18T14:59:43.908Z,99.90
2018-12-18T15:02:12.994Z,99.20
2018-12-18T15:04:42.074Z,99.00
2018-12-18T15:07:11.235Z,98.90
2018-12-18T15:09:40.328Z,99.00
2018-12-18T15:12:09.416Z,99.90
2018-12-18T15:14:38.554Z,99.90
2018-12-18T15:17:07.621Z,99.90
2018-12-18T15:19:36.746Z,99.70
2018-12-18T15:22:06.121Z,99.40
2018-12-18T15:24:35.177Z,99.90
2018-12-18T15:27:04.297Z,99.90
2018-12-18T15:29:33.406Z,99.90
2018-12-18T15:32:02.583Z,99.90
2018-12-18T15:34:31.699Z,99.90
2018-12-18T15:37:00.848Z,99.90
2018-12-18T15:39:29.903Z,99.90
2018-12-18T15:41:58.972Z,99.90
2018-12-18T15:44:28.596Z,99.80
2018-12-18T15:46:57.709Z,99.50
2018-12-18T15:49:26.802Z,99.70
2018-12-18T15:51:55.932Z,99.80
2018-12-18T15:54:25.064Z,99.40
2018-12-18T15:56:54.149Z,99.80
2018-12-18T15:59:23.280Z,99.90
2018-12-18T16:01:52.337Z,99.90
2018-12-18T16:04:21.428Z,99.90
2018-12-18T16:06:50.581Z,99.70
2018-12-18T16:09:20.000Z,99.90
2018-12-18T16:11:49.132Z,99.20
2018-12-18T16:14:18.258Z,99.90
2018-12-18T16:16:47.379Z,99.80
2018-12-18T16:19:16.609Z,99.90
2018-12-18T16:21:46.043Z,98.50
2018-12-18T16:24:15.377Z,98.60
2018-12-18T16:26:44.455Z,98.90
2018-12-18T16:29:13.605Z,99.60
2018-12-18T16:31:42.689Z,99.90
2018-12-18T16:34:11.772Z,99.90
2018-12-18T16:36:40.878Z,99.90
2018-12-18T16:39:10.026Z,99.90
2018-12-18T16:41:39.137Z,99.90
2018-12-18T16:44:08.284Z,97.80
2018-12-18T16:46:37.381Z,97.90
2018-12-18T16:49:06.489Z,98.40
2018-12-18T16:51:36.036Z,98.60
2018-12-18T16:54:06.526Z,99.20
2018-12-18T16:56:35.921Z,99.20
2018-12-18T16:59:05.272Z,99.60
2018-12-18T17:01:34.421Z,99.60
2018-12-18T17:04:03.581Z,99.20
2018-12-18T17:06:32.669Z,98.40
2018-12-18T17:09:01.778Z,97.90
2018-12-18T17:11:31.015Z,99.00
2018-12-18T17:14:00.100Z,99.90
2018-12-18T17:16:29.239Z,99.90
2018-12-18T17:18:58.405Z,99.90
2018-12-18T17:21:27.513Z,99.90
2018-12-18T17:23:56.634Z,99.90
2018-12-18T17:26:25.824Z,99.10
2018-12-18T17:28:54.889Z,99.40
2018-12-18T17:31:23.986Z,99.90
2018-12-18T17:33:53.139Z,98.90
2018-12-18T17:36:22.241Z,97.00
2018-12-18T17:38:51.279Z,99.90
2018-12-18T17:41:20.436Z,98.70
2018-12-18T17:43:50.223Z,98.80
2018-12-18T17:46:19.321Z,99.00
2018-12-18T17:48:48.464Z,99.30
2018-12-18T17:51:17.570Z,99.90
2018-12-18T17:53:46.712Z,99.80
2018-12-18T17:56:15.865Z,99.70
2018-12-18T17:58:44.971Z,99.90
2018-12-18T18:01:14.066Z,97.90
2018-12-18T18:03:43.582Z,97.60
2018-12-18T18:06:12.781Z,97.20
2018-12-18T18:08:41.867Z,97.30
2018-12-18T18:11:11.013Z,97.60
2018-12-18T18:13:40.123Z,96.90
2018-12-18T18:16:09.223Z,97.40
2018-12-18T18:18:38.316Z,98.20
2018-12-18T18:21:07.548Z,98.60
2018-12-18T18:23:36.632Z,97.90
2018-12-18T18:26:06.370Z,98.00
2018-12-18T18:28:35.415Z,98.00
2018-12-18T18:31:04.502Z,97.10
2018-12-18T18:33:33.582Z,97.00
2018-12-18T18:36:02.788Z,97.40
2018-12-18T18:38:31.944Z,98.10
2018-12-18T18:41:01.198Z,98.60
2018-12-18T18:43:30.292Z,98.70
2018-12-18T18:45:59.381Z,98.40
2018-12-18T18:48:28.501Z,98.30
2018-12-18T18:50:57.588Z,98.40
2018-12-18T18:53:26.660Z,98.40
2018-12-18T18:55:55.836Z,98.40
2018-12-18T18:58:24.933Z,98.40
2018-12-18T19:00:54.019Z,98.00
2018-12-18T19:03:23.469Z,97.00
2018-12-18T19:05:52.577Z,96.90
2018-12-18T19:08:21.681Z,96.90
2018-12-18T19:10:50.795Z,96.80
2018-12-18T19:13:19.926Z,97.00
2018-12-18T19:15:49.081Z,97.30
2018-12-18T19:18:18.343Z,98.20
2018-12-18T19:20:47.509Z,97.50
2018-12-18T19:23:16.651Z,98.00
2018-12-18T19:25:45.757Z,99.90
2018-12-18T19:28:14.951Z,97.90
2018-12-18T19:30:44.036Z,98.70
2018-12-18T19:33:13.148Z,99.90
2018-12-18T19:35:42.227Z,99.90
2018-12-18T19:38:11.299Z,99.90
2018-12-18T19:40:40.488Z,98.00
2018-12-18T19:43:09.589Z,98.40
2018-12-18T19:45:38.741Z,98.70
2018-12-18T19:48:07.885Z,98.60
2018-12-18T19:50:36.947Z,98.20
2018-12-18T19:53:06.061Z,98.70
2018-12-18T19:55:35.208Z,99.50
2018-12-18T19:58:04.383Z,99.60
2018-12-18T20:00:33.554Z,99.90
2018-12-18T20:03:02.755Z,99.90
2018-12-18T20:05:31.986Z,99.90
2018-12-18T20:08:01.120Z,99.60
2018-12-18T20:10:30.259Z,99.90
2018-12-18T20:13:03.500Z,99.90
2018-12-18T20:15:32.682Z,99.30
2018-12-18T20:18:02.013Z,99.10
2018-12-18T20:20:31.118Z,98.90
2018-12-18T20:23:00.275Z,99.00
2018-12-18T20:25:29.368Z,99.20
2018-12-18T20:27:58.465Z,98.30
2018-12-18T20:30:27.670Z,99.20
2018-12-18T20:32:56.787Z,99.50
2018-12-18T20:35:25.868Z,99.70
2018-12-18T20:37:55.019Z,99.90
2018-12-18T20:40:24.163Z,99.90
2018-12-18T20:42:53.278Z,99.90
2018-12-18T20:45:22.424Z,99.90
2018-12-18T20:47:51.512Z,99.90
2018-12-18T20:50:20.602Z,99.90
2018-12-18T20:52:49.740Z,99.90
2018-12-18T20:55:18.862Z,99.90
2018-12-18T20:57:47.996Z,99.80
2018-12-18T21:00:17.325Z,99.90
2018-12-18T21:02:46.486Z,99.90
2018-12-18T21:05:15.610Z,99.50
2018-12-18T21:07:44.895Z,99.30
2018-12-18T21:10:13.989Z,99.60
2018-12-18T21:12:43.032Z,98.70
2018-12-18T21:15:12.166Z,98.20
2018-12-18T21:17:41.269Z,99.20
2018-12-18T21:20:10.529Z,98.10
2018-12-18T21:22:39.723Z,97.20
2018-12-18T21:25:09.077Z,97.40
2018-12-18T21:27:38.180Z,97.70
2018-12-18T21:30:08.453Z,98.50
2018-12-18T21:32:37.513Z,97.30
2018-12-18T21:35:06.627Z,97.90
2018-12-18T21:37:35.780Z,98.30
2018-12-18T21:40:05.507Z,99.00
2018-12-18T21:42:34.566Z,99.70
2018-12-18T21:45:03.859Z,98.60
2018-12-18T21:47:32.955Z,98.50
2018-12-18T21:50:02.056Z,98.60
2018-12-18T21:52:31.634Z,97.60
2018-12-18T21:55:00.702Z,97.40
2018-12-18T21:57:29.753Z,98.90
2018-12-18T21:59:59.202Z,99.20
2018-12-18T22:02:28.249Z,99.20
2018-12-18T22:04:57.299Z,99.90
2018-12-18T22:07:26.429Z,99.50
2018-12-18T22:09:55.560Z,99.90
2018-12-18T22:12:24.735Z,99.90
2018-12-18T22:14:54.078Z,99.90
2018-12-18T22:17:23.177Z,99.90
2018-12-18T22:19:52.198Z,99.90
2018-12-18T22:22:21.332Z,99.80
2018-12-18T22:24:50.410Z,99.70
2018-12-18T22:27:19.519Z,99.70
2018-12-18T22:29:48.663Z,98.90
2018-12-18T22:32:17.736Z,98.50
2018-12-18T22:34:46.833Z,98.50
2018-12-18T22:37:15.964Z,99.40
2018-12-18T22:39:45.049Z,99.00
2018-12-18T22:42:14.164Z,98.70
2018-12-18T22:44:43.304Z,98.70
2018-12-18T22:47:12.376Z,98.50
2018-12-18T22:49:41.423Z,98.80
2018-12-18T22:52:10.567Z,98.80
2018-12-18T22:54:39.677Z,99.10
2018-12-18T22:57:08.747Z,98.90
2018-12-18T22:59:37.853Z,98.50
2018-12-18T23:02:11.943Z,98.60
2018-12-18T23:04:41.739Z,98.80
2018-12-18T23:07:10.854Z,99.20
2018-12-18T23:09:39.947Z,98.90
2018-12-18T23:12:09.039Z,98.90
2018-12-18T23:14:38.161Z,98.90
2018-12-18T23:17:07.258Z,98.70
2018-12-18T23:19:36.396Z,98.80
2018-12-18T23:22:05.636Z,98.80
2018-12-18T23:24:34.726Z,98.90
2018-12-18T23:27:04.439Z,99.00
2018-12-18T23:29:33.527Z,98.90
2018-12-18T23:32:02.647Z,98.90
2018-12-18T23:34:33.153Z,98.80
2018-12-18T23:37:02.527Z,98.80
2018-12-18T23:39:31.615Z,98.70
2018-12-18T23:42:01.163Z,98.50
2018-12-18T23:44:30.256Z,99.10
2018-12-18T23:46:59.329Z,99.00
2018-12-18T23:49:28.755Z,99.40
2018-12-18T23:51:57.887Z,99.40
2018-12-18T23:54:26.985Z,99.70
2018-12-18T23:56:56.163Z,99.60
2018-12-18T23:59:25.275Z,99.40
